createdAt,value
2023-05-09T00:00:44.703Z,6.82
2023-05-09T00:03:11.378Z,7.00
2023-05-09T00:05:38.611Z,7.24
2023-05-09T00:08:05.341Z,6.92
2023-05-09T00:10:32.022Z,7.15
2023-05-09T00:12:58.801Z,7.26
2023-05-09T00:15:25.580Z,7.21
2023-05-09T00:17:53.560Z,6.72
2023-05-09T00:20:20.417Z,6.84
2023-05-09T00:22:50.115Z,6.75
2023-05-09T00:25:16.889Z,6.78
2023-05-09T00:27:43.927Z,6.70
2023-05-09T00:30:10.875Z,6.71
2023-05-09T00:32:37.544Z,6.76
2023-05-09T00:35:04.698Z,7.06
2023-05-09T00:37:31.358Z,6.80
2023-05-09T00:39:58.073Z,6.73
2023-05-09T00:42:24.737Z,6.82
2023-05-09T00:44:51.428Z,6.72
2023-05-09T00:47:18.192Z,6.69
2023-05-09T00:49:45.047Z,6.79
2023-05-09T00:52:11.764Z,6.54
2023-05-09T00:54:38.655Z,6.59
2023-05-09T00:57:05.405Z,6.38
2023-05-09T00:59:33.666Z,6.19
2023-05-09T01:02:00.426Z,6.11
2023-05-09T01:04:27.275Z,6.24
2023-05-09T01:07:02.866Z,6.48
2023-05-09T01:10:00.951Z,6.38
2023-05-09T01:13:01.544Z,6.28
2023-05-09T01:15:47.101Z,5.89
2023-05-09T01:18:19.733Z,5.84
2023-05-09T01:20:53.985Z,5.77
2023-05-09T01:23:44.376Z,5.91
2023-05-09T01:26:56.008Z,6.14
2023-05-09T01:29:58.284Z,6.18
2023-05-09T01:32:27.719Z,5.95
2023-05-09T01:35:00.791Z,6.15
2023-05-09T01:37:36.423Z,6.33
2023-05-09T01:40:20.683Z,6.47
2023-05-09T01:42:57.115Z,6.55
2023-05-09T01:45:25.416Z,6.39
2023-05-09T01:47:54.123Z,6.44
2023-05-09T01:50:22.582Z,6.66
2023-05-09T01:52:52.661Z,6.64
2023-05-09T01:55:21.682Z,6.49
2023-05-09T01:57:49.861Z,6.27
2023-05-09T02:00:17.360Z,6.34
2023-05-09T02:02:44.777Z,5.97
2023-05-09T02:05:12.441Z,6.17
2023-05-09T02:07:41.875Z,6.17
2023-05-09T02:10:10.049Z,5.76
2023-05-09T02:12:36.779Z,5.83
2023-05-09T02:15:04.102Z,6.12
2023-05-09T02:17:30.875Z,5.84
2023-05-09T02:19:57.908Z,5.61
2023-05-09T02:22:24.731Z,5.69
2023-05-09T02:24:51.628Z,5.92
2023-05-09T02:27:20.431Z,5.65
2023-05-09T02:29:51.839Z,5.92
2023-05-09T02:32:27.101Z,5.66
2023-05-09T02:34:54.488Z,5.90
2023-05-09T02:37:23.499Z,6.07
2023-05-09T02:39:50.143Z,5.92
2023-05-09T02:42:22.103Z,5.78
2023-05-09T02:44:48.765Z,5.82
2023-05-09T02:47:15.487Z,5.54
2023-05-09T02:49:42.081Z,5.63
2023-05-09T02:52:09.025Z,5.62
2023-05-09T02:54:35.666Z,5.36
2023-05-09T02:57:02.404Z,5.53
2023-05-09T02:59:29.138Z,5.62
2023-05-09T03:01:56.076Z,5.69
2023-05-09T03:04:22.758Z,5.49
2023-05-09T03:06:49.386Z,5.46
2023-05-09T03:09:16.006Z,5.57
2023-05-09T03:11:42.688Z,5.26
2023-05-09T03:14:09.309Z,5.29
2023-05-09T03:16:35.933Z,5.32
2023-05-09T03:19:03.411Z,5.26
2023-05-09T03:21:30.311Z,5.00
2023-05-09T03:23:56.899Z,4.99
2023-05-09T03:26:23.540Z,5.01
2023-05-09T03:28:50.116Z,4.97
2023-05-09T03:31:16.876Z,5.20
2023-05-09T03:33:43.560Z,5.41
2023-05-09T03:36:10.197Z,5.35
2023-05-09T03:38:36.932Z,5.41
2023-05-09T03:41:03.967Z,5.07
2023-05-09T03:43:30.664Z,5.22
2023-05-09T03:45:57.319Z,5.69
2023-05-09T03:48:23.951Z,5.60
2023-05-09T03:50:50.632Z,5.67
2023-05-09T03:53:17.239Z,5.35
2023-05-09T03:55:43.833Z,5.30
2023-05-09T03:58:11.780Z,5.27
2023-05-09T04:00:38.754Z,5.25
2023-05-09T04:03:07.794Z,5.04
2023-05-09T04:05:34.904Z,5.03
2023-05-09T04:08:01.646Z,4.96
2023-05-09T04:10:28.386Z,4.92
2023-05-09T04:12:55.036Z,4.98
2023-05-09T04:15:21.647Z,5.24
2023-05-09T04:17:48.292Z,5.29
2023-05-09T04:20:14.987Z,5.37
2023-05-09T04:22:41.668Z,5.16
2023-05-09T04:25:08.444Z,5.26
2023-05-09T04:27:35.126Z,5.24
2023-05-09T04:30:01.757Z,5.30
2023-05-09T04:32:28.380Z,5.38
2023-05-09T04:34:55.124Z,5.33
2023-05-09T04:37:21.740Z,5.34
2023-05-09T04:39:48.385Z,5.37
2023-05-09T04:42:14.977Z,5.45
2023-05-09T04:44:41.791Z,5.53
2023-05-09T04:47:09.502Z,5.66
2023-05-09T04:49:36.140Z,5.61
2023-05-09T04:52:02.806Z,5.68
2023-05-09T04:54:29.400Z,5.76
2023-05-09T04:57:03.231Z,5.82
2023-05-09T04:59:36.808Z,6.00
2023-05-09T05:02:03.488Z,6.06
2023-05-09T05:04:30.137Z,6.17
2023-05-09T05:06:56.819Z,6.03
2023-05-09T05:09:23.492Z,6.12
2023-05-09T05:11:59.588Z,6.30
2023-05-09T05:14:27.708Z,6.39
2023-05-09T05:16:54.814Z,6.48
2023-05-09T05:19:21.460Z,6.71
2023-05-09T05:21:48.100Z,6.68
2023-05-09T05:24:14.730Z,6.70
2023-05-09T05:26:41.352Z,6.94
2023-05-09T05:29:08.007Z,7.21
2023-05-09T05:31:34.720Z,7.37
2023-05-09T05:34:01.489Z,7.40
2023-05-09T05:36:28.087Z,7.50
2023-05-09T05:38:54.705Z,7.74
2023-05-09T05:41:21.294Z,7.81
2023-05-09T05:43:47.902Z,7.86
2023-05-09T05:46:14.537Z,8.09
2023-05-09T05:48:41.202Z,8.41
2023-05-09T05:51:08.045Z,8.62
2023-05-09T05:53:34.749Z,8.35
2023-05-09T05:56:01.367Z,8.54
2023-05-09T05:58:27.975Z,8.56
2023-05-09T06:00:54.864Z,8.59
2023-05-09T06:03:21.488Z,8.69
2023-05-09T06:05:48.252Z,8.81
2023-05-09T06:08:14.909Z,9.12
2023-05-09T06:10:41.744Z,9.02
2023-05-09T06:13:08.546Z,9.22
2023-05-09T06:15:35.175Z,9.25
2023-05-09T06:18:01.800Z,9.26
2023-05-09T06:20:31.384Z,9.25
2023-05-09T06:22:57.970Z,9.25
2023-05-09T06:25:24.589Z,9.35
2023-05-09T06:27:51.207Z,9.74
2023-05-09T06:30:28.057Z,9.96
2023-05-09T06:32:55.518Z,10.14
2023-05-09T06:35:22.366Z,10.19
2023-05-09T06:37:49.542Z,10.22
2023-05-09T06:40:17.026Z,10.19
2023-05-09T06:42:44.275Z,10.26
2023-05-09T06:45:11.795Z,10.36
2023-05-09T06:47:38.800Z,10.52
2023-05-09T06:50:06.073Z,10.46
2023-05-09T06:52:32.739Z,10.79
2023-05-09T06:54:59.317Z,10.94
2023-05-09T06:57:26.262Z,11.17
2023-05-09T06:59:52.930Z,11.11
2023-05-09T07:02:19.685Z,11.03
2023-05-09T07:04:46.471Z,11.26
2023-05-09T07:07:13.295Z,11.12
2023-05-09T07:09:39.942Z,11.44
2023-05-09T07:12:06.742Z,11.56
2023-05-09T07:14:33.424Z,11.58
2023-05-09T07:17:13.799Z,11.49
2023-05-09T07:19:45.311Z,11.37
2023-05-09T07:22:11.990Z,11.53
2023-05-09T07:24:38.799Z,11.51
2023-05-09T07:27:05.667Z,11.75
2023-05-09T07:29:32.278Z,12.21
2023-05-09T07:31:58.924Z,12.61
2023-05-09T07:34:25.649Z,12.53
2023-05-09T07:36:52.572Z,12.47
2023-05-09T07:39:19.203Z,12.53
2023-05-09T07:41:47.880Z,12.62
2023-05-09T07:44:15.458Z,12.53
2023-05-09T07:46:42.142Z,12.56
2023-05-09T07:49:08.976Z,12.82
2023-05-09T07:51:36.029Z,12.90
2023-05-09T07:54:02.702Z,12.99
2023-05-09T07:56:29.280Z,12.96
2023-05-09T07:58:56.019Z,13.26
2023-05-09T08:01:22.652Z,12.92
2023-05-09T08:03:49.488Z,12.95
2023-05-09T08:06:16.301Z,12.99
2023-05-09T08:08:42.910Z,13.46
2023-05-09T08:11:09.735Z,13.46
2023-05-09T08:13:36.399Z,13.60
2023-05-09T08:16:03.110Z,13.89
2023-05-09T08:18:32.803Z,14.01
2023-05-09T08:20:59.458Z,13.88
2023-05-09T08:23:28.291Z,14.14
2023-05-09T08:25:55.234Z,14.20
2023-05-09T08:28:22.573Z,14.17
2023-05-09T08:30:49.173Z,14.09
2023-05-09T08:33:15.827Z,14.23
2023-05-09T08:35:42.461Z,14.07
2023-05-09T08:38:09.296Z,14.06
2023-05-09T08:40:36.961Z,14.03
2023-05-09T08:43:06.746Z,13.91
2023-05-09T08:45:36.151Z,14.25
2023-05-09T08:48:03.552Z,14.56
2023-05-09T08:50:30.305Z,14.89
2023-05-09T08:52:57.216Z,14.94
2023-05-09T08:55:23.920Z,14.94
2023-05-09T08:57:52.244Z,15.07
2023-05-09T09:00:20.824Z,15.17
2023-05-09T09:02:48.402Z,15.20
2023-05-09T09:05:34.064Z,15.24
2023-05-09T09:08:01.965Z,15.28
2023-05-09T09:10:32.691Z,15.24
2023-05-09T09:13:00.783Z,15.34
2023-05-09T09:15:35.207Z,15.65
2023-05-09T09:18:09.691Z,15.82
2023-05-09T09:20:48.970Z,16.02
2023-05-09T09:23:21.113Z,15.63
2023-05-09T09:25:48.133Z,15.83
2023-05-09T09:28:15.320Z,15.95
2023-05-09T09:30:49.301Z,15.98
2023-05-09T09:33:20.522Z,15.95
2023-05-09T09:35:55.613Z,16.23
2023-05-09T09:38:24.354Z,16.23
2023-05-09T09:40:55.680Z,15.79
2023-05-09T09:43:32.082Z,16.29
2023-05-09T09:46:03.146Z,16.32
2023-05-09T09:48:34.774Z,16.09
2023-05-09T09:51:09.233Z,16.41
2023-05-09T09:53:40.684Z,16.53
2023-05-09T09:56:08.300Z,16.78
2023-05-09T09:58:35.532Z,17.07
2023-05-09T10:01:10.305Z,17.25
2023-05-09T10:03:42.360Z,17.15
2023-05-09T10:06:14.371Z,17.14
2023-05-09T10:08:42.478Z,17.27
2023-05-09T10:11:09.762Z,17.41
2023-05-09T10:13:37.575Z,16.75
2023-05-09T10:16:05.899Z,16.93
2023-05-09T10:18:33.384Z,17.01
2023-05-09T10:21:00.151Z,16.97
2023-05-09T10:23:29.923Z,16.95
2023-05-09T10:26:23.388Z,16.82
2023-05-09T10:28:55.307Z,17.36
2023-05-09T10:31:25.091Z,17.33
2023-05-09T10:33:51.810Z,17.08
2023-05-09T10:36:20.609Z,16.59
2023-05-09T10:38:48.378Z,16.87
2023-05-09T10:41:16.410Z,16.45
2023-05-09T10:43:44.793Z,16.91
2023-05-09T10:46:12.775Z,17.43
2023-05-09T10:48:40.574Z,17.65
2023-05-09T10:51:08.264Z,17.82
2023-05-09T10:53:43.076Z,17.95
2023-05-09T10:56:10.325Z,17.82
2023-05-09T10:58:36.980Z,17.95
2023-05-09T11:01:05.020Z,17.79
2023-05-09T11:03:58.739Z,17.11
2023-05-09T11:06:43.424Z,16.90
2023-05-09T11:09:38.243Z,17.06
2023-05-09T11:12:05.029Z,16.63
2023-05-09T11:14:36.101Z,16.74
2023-05-09T11:17:07.085Z,16.92
2023-05-09T11:19:45.633Z,17.12
2023-05-09T11:22:23.298Z,17.45
2023-05-09T11:24:52.277Z,17.68
2023-05-09T11:27:24.146Z,17.81
2023-05-09T11:29:53.237Z,17.88
2023-05-09T11:32:28.716Z,17.68
2023-05-09T11:35:12.952Z,17.19
2023-05-09T11:37:45.861Z,17.08
2023-05-09T11:40:14.302Z,17.05
2023-05-09T11:42:48.438Z,16.89
2023-05-09T11:45:16.161Z,17.32
2023-05-09T11:47:43.090Z,17.54
2023-05-09T11:50:11.764Z,17.25
2023-05-09T11:52:38.973Z,17.02
2023-05-09T11:55:12.794Z,17.13
2023-05-09T11:57:41.904Z,17.73
2023-05-09T12:00:09.194Z,17.88
2023-05-09T12:02:37.298Z,17.85
2023-05-09T12:05:10.954Z,17.93
2023-05-09T12:07:38.354Z,18.08
2023-05-09T12:10:25.270Z,17.96
2023-05-09T12:12:53.514Z,17.79
2023-05-09T12:15:20.466Z,18.05
2023-05-09T12:17:50.493Z,17.90
2023-05-09T12:20:18.613Z,17.44
2023-05-09T12:22:45.484Z,18.01
2023-05-09T12:25:12.482Z,18.43
2023-05-09T12:27:42.256Z,18.48
2023-05-09T12:30:09.405Z,18.32
2023-05-09T12:32:36.986Z,17.96
2023-05-09T12:35:03.791Z,17.91
2023-05-09T12:37:31.503Z,17.44
2023-05-09T12:40:09.288Z,17.76
2023-05-09T12:42:36.206Z,17.64
2023-05-09T12:45:03.641Z,17.41
2023-05-09T12:47:31.335Z,17.50
2023-05-09T12:50:02.582Z,17.68
2023-05-09T12:52:44.005Z,17.84
2023-05-09T12:55:18.769Z,17.79
2023-05-09T12:57:58.463Z,17.70
2023-05-09T13:00:25.575Z,17.37
2023-05-09T13:02:52.445Z,17.47
2023-05-09T13:05:21.072Z,17.50
2023-05-09T13:07:52.312Z,17.77
2023-05-09T13:10:29.939Z,18.30
2023-05-09T13:12:56.652Z,18.57
2023-05-09T13:15:23.462Z,18.42
2023-05-09T13:17:51.728Z,18.15
2023-05-09T13:20:19.536Z,18.10
2023-05-09T13:22:46.899Z,17.94
2023-05-09T13:25:13.835Z,17.99
2023-05-09T13:27:40.552Z,18.36
2023-05-09T13:30:07.785Z,18.54
2023-05-09T13:32:34.988Z,18.82
2023-05-09T13:35:01.651Z,19.00
2023-05-09T13:37:28.615Z,18.84
2023-05-09T13:39:55.804Z,18.36
2023-05-09T13:42:22.507Z,18.29
2023-05-09T13:44:49.121Z,17.78
2023-05-09T13:47:15.753Z,17.78
2023-05-09T13:49:42.350Z,17.92
2023-05-09T13:52:08.948Z,18.05
2023-05-09T13:54:35.640Z,18.51
2023-05-09T13:57:03.466Z,18.85
2023-05-09T13:59:31.066Z,18.92
2023-05-09T14:02:01.039Z,18.86
2023-05-09T14:04:29.173Z,19.02
2023-05-09T14:06:56.049Z,19.10
2023-05-09T14:09:23.166Z,19.19
2023-05-09T14:11:50.723Z,18.74
2023-05-09T14:14:21.379Z,18.51
2023-05-09T14:16:50.321Z,18.74
2023-05-09T14:19:17.540Z,18.59
2023-05-09T14:21:47.321Z,18.54
2023-05-09T14:24:16.166Z,18.33
2023-05-09T14:26:43.306Z,18.50
2023-05-09T14:29:09.976Z,18.67
2023-05-09T14:31:36.712Z,19.07
2023-05-09T14:34:03.353Z,19.07
2023-05-09T14:36:30.448Z,19.01
2023-05-09T14:38:57.174Z,18.60
2023-05-09T14:41:23.892Z,18.66
2023-05-09T14:43:51.371Z,18.81
2023-05-09T14:46:18.210Z,19.00
2023-05-09T14:48:44.874Z,19.30
2023-05-09T14:51:11.520Z,19.22
2023-05-09T14:53:38.112Z,19.11
2023-05-09T14:56:05.756Z,19.46
2023-05-09T14:58:32.505Z,19.11
2023-05-09T15:00:59.378Z,19.35
2023-05-09T15:03:26.063Z,19.02
2023-05-09T15:05:52.681Z,19.07
2023-05-09T15:08:19.458Z,19.09
2023-05-09T15:10:46.697Z,18.67
2023-05-09T15:13:13.642Z,18.81
2023-05-09T15:15:40.342Z,18.70
2023-05-09T15:18:07.652Z,19.03
2023-05-09T15:20:34.355Z,19.24
2023-05-09T15:23:01.040Z,18.93
2023-05-09T15:25:27.738Z,19.11
2023-05-09T15:27:54.399Z,18.97
2023-05-09T15:30:21.044Z,19.17
2023-05-09T15:32:47.638Z,19.33
2023-05-09T15:35:14.332Z,19.39
2023-05-09T15:37:40.979Z,19.45
2023-05-09T15:40:08.306Z,19.47
2023-05-09T15:42:35.342Z,19.77
2023-05-09T15:45:02.273Z,19.42
2023-05-09T15:47:29.139Z,19.14
2023-05-09T15:49:57.840Z,18.80
2023-05-09T15:52:27.494Z,18.51
2023-05-09T15:54:55.811Z,17.76
2023-05-09T15:57:22.782Z,17.67
2023-05-09T15:59:49.419Z,17.67
2023-05-09T16:02:16.442Z,17.37
2023-05-09T16:04:45.444Z,17.28
2023-05-09T16:07:12.499Z,17.58
2023-05-09T16:09:39.207Z,17.37
2023-05-09T16:12:05.951Z,17.51
2023-05-09T16:14:32.784Z,17.52
2023-05-09T16:16:59.776Z,17.72
2023-05-09T16:19:33.182Z,17.50
2023-05-09T16:22:01.760Z,17.55
2023-05-09T16:24:28.446Z,17.74
2023-05-09T16:26:57.343Z,17.87
2023-05-09T16:29:24.028Z,17.78
2023-05-09T16:31:50.666Z,18.10
2023-05-09T16:34:17.338Z,17.97
2023-05-09T16:36:44.067Z,17.99
2023-05-09T16:39:10.742Z,18.09
2023-05-09T16:41:37.458Z,17.99
2023-05-09T16:44:04.321Z,17.97
2023-05-09T16:46:31.028Z,18.01
2023-05-09T16:48:57.705Z,18.09
2023-05-09T16:51:24.378Z,18.23
2023-05-09T16:53:51.064Z,18.16
2023-05-09T16:56:17.719Z,17.94
2023-05-09T16:58:44.300Z,18.04
2023-05-09T17:01:10.985Z,18.11
2023-05-09T17:03:37.662Z,17.92
2023-05-09T17:06:04.377Z,17.45
2023-05-09T17:08:30.972Z,17.19
2023-05-09T17:10:57.706Z,17.14
2023-05-09T17:13:24.454Z,16.63
2023-05-09T17:15:51.194Z,16.54
2023-05-09T17:18:29.109Z,16.59
2023-05-09T17:21:03.500Z,16.81
2023-05-09T17:23:30.176Z,16.67
2023-05-09T17:25:56.813Z,16.51
2023-05-09T17:28:23.437Z,16.93
2023-05-09T17:30:50.755Z,17.19
2023-05-09T17:33:17.365Z,17.20
2023-05-09T17:35:44.019Z,17.16
2023-05-09T17:38:10.656Z,16.80
2023-05-09T17:40:37.371Z,16.32
2023-05-09T17:43:04.028Z,16.28
2023-05-09T17:45:30.687Z,15.74
2023-05-09T17:47:57.386Z,15.79
2023-05-09T17:50:24.082Z,15.90
2023-05-09T17:52:50.727Z,15.78
2023-05-09T17:55:17.470Z,15.68
2023-05-09T17:57:44.446Z,15.61
2023-05-09T18:00:13.342Z,15.72
2023-05-09T18:02:41.158Z,15.59
2023-05-09T18:05:08.854Z,15.64
2023-05-09T18:07:35.712Z,15.52
2023-05-09T18:10:05.244Z,15.75
2023-05-09T18:12:31.904Z,15.69
2023-05-09T18:14:58.531Z,15.29
2023-05-09T18:17:25.233Z,15.37
2023-05-09T18:19:52.020Z,15.23
2023-05-09T18:22:18.634Z,15.19
2023-05-09T18:24:45.600Z,15.19
2023-05-09T18:27:12.227Z,15.15
2023-05-09T18:29:38.867Z,14.92
2023-05-09T18:32:08.432Z,14.79
2023-05-09T18:34:35.126Z,14.64
2023-05-09T18:37:01.767Z,14.60
2023-05-09T18:39:28.564Z,14.53
2023-05-09T18:41:57.593Z,14.39
2023-05-09T18:44:25.365Z,14.26
2023-05-09T18:46:52.084Z,14.17
2023-05-09T18:49:18.847Z,14.07
2023-05-09T18:51:46.766Z,13.89
2023-05-09T18:54:13.513Z,13.79
2023-05-09T18:56:40.209Z,13.89
2023-05-09T18:59:06.894Z,13.70
2023-05-09T19:01:33.643Z,13.60
2023-05-09T19:04:00.408Z,13.85
2023-05-09T19:06:27.160Z,13.83
2023-05-09T19:08:56.593Z,13.80
2023-05-09T19:11:23.260Z,13.78
2023-05-09T19:13:50.035Z,13.70
2023-05-09T19:16:16.943Z,13.58
2023-05-09T19:18:43.626Z,13.45
2023-05-09T19:21:11.303Z,13.44
2023-05-09T19:23:37.935Z,13.39
2023-05-09T19:26:04.578Z,13.23
2023-05-09T19:28:31.270Z,13.26
2023-05-09T19:30:57.949Z,13.28
2023-05-09T19:33:24.610Z,13.07
2023-05-09T19:35:51.226Z,13.15
2023-05-09T19:38:17.867Z,13.00
2023-05-09T19:40:44.491Z,12.85
2023-05-09T19:43:11.202Z,12.84
2023-05-09T19:45:37.889Z,12.82
2023-05-09T19:48:04.730Z,13.02
2023-05-09T19:50:31.443Z,12.85
2023-05-09T19:52:58.380Z,12.66
2023-05-09T19:55:27.697Z,12.56
2023-05-09T19:57:54.371Z,12.49
2023-05-09T20:00:21.059Z,12.52
2023-05-09T20:02:47.756Z,12.45
2023-05-09T20:05:14.450Z,12.19
2023-05-09T20:07:41.314Z,12.31
2023-05-09T20:10:08.388Z,12.19
2023-05-09T20:12:34.995Z,12.17
2023-05-09T20:15:01.577Z,12.00
2023-05-09T20:17:28.253Z,12.00
2023-05-09T20:19:54.845Z,12.16
2023-05-09T20:22:21.560Z,12.20
2023-05-09T20:24:48.305Z,12.04
2023-05-09T20:27:15.030Z,12.17
2023-05-09T20:29:41.703Z,12.25
2023-05-09T20:32:08.356Z,11.93
2023-05-09T20:34:34.986Z,11.88
2023-05-09T20:37:01.660Z,11.98
2023-05-09T20:39:28.338Z,11.56
2023-05-09T20:41:55.064Z,11.80
2023-05-09T20:44:21.713Z,11.93
2023-05-09T20:46:48.333Z,11.79
2023-05-09T20:49:15.050Z,11.86
2023-05-09T20:51:41.836Z,11.85
2023-05-09T20:54:08.489Z,11.94
2023-05-09T20:56:35.171Z,11.97
2023-05-09T20:59:02.383Z,11.75
2023-05-09T21:01:30.405Z,11.75
2023-05-09T21:03:57.146Z,11.76
2023-05-09T21:06:23.802Z,11.86
2023-05-09T21:08:50.549Z,11.83
2023-05-09T21:11:19.300Z,11.90
2023-05-09T21:13:45.948Z,11.82
2023-05-09T21:16:12.571Z,12.18
2023-05-09T21:18:39.257Z,12.03
2023-05-09T21:21:07.072Z,11.68
2023-05-09T21:23:34.198Z,11.88
2023-05-09T21:26:01.224Z,11.80
2023-05-09T21:28:28.144Z,11.69
2023-05-09T21:30:55.055Z,11.86
2023-05-09T21:33:21.944Z,11.93
2023-05-09T21:35:48.641Z,11.75
2023-05-09T21:38:15.389Z,11.78
2023-05-09T21:40:42.026Z,11.62
2023-05-09T21:43:08.634Z,11.68
2023-05-09T21:45:35.297Z,11.60
2023-05-09T21:48:02.127Z,11.59
2023-05-09T21:50:28.871Z,11.95
2023-05-09T21:52:55.492Z,11.94
2023-05-09T21:55:22.492Z,11.78
2023-05-09T21:57:49.349Z,11.69
2023-05-09T22:00:17.027Z,11.66
2023-05-09T22:02:44.075Z,11.60
2023-05-09T22:05:11.547Z,11.87
2023-05-09T22:07:38.393Z,11.75
2023-05-09T22:10:06.026Z,11.71
2023-05-09T22:12:32.857Z,11.63
2023-05-09T22:14:59.474Z,11.48
2023-05-09T22:17:26.187Z,11.53
2023-05-09T22:19:52.868Z,11.60
2023-05-09T22:22:19.670Z,11.60
2023-05-09T22:24:46.336Z,11.66
2023-05-09T22:27:13.061Z,11.76
2023-05-09T22:29:39.724Z,11.80
2023-05-09T22:32:06.588Z,11.98
2023-05-09T22:34:33.320Z,11.82
2023-05-09T22:36:59.968Z,12.06
2023-05-09T22:39:26.612Z,11.81
2023-05-09T22:41:53.233Z,11.80
2023-05-09T22:44:19.811Z,12.13
2023-05-09T22:46:46.450Z,12.20
2023-05-09T22:49:13.052Z,11.95
2023-05-09T22:51:39.715Z,11.95
2023-05-09T22:54:06.326Z,12.30
2023-05-09T22:56:32.954Z,12.37
2023-05-09T22:58:59.549Z,12.26
2023-05-09T23:01:27.337Z,12.47
2023-05-09T23:03:54.021Z,12.06
2023-05-09T23:06:20.613Z,12.33
2023-05-09T23:08:47.337Z,12.20
2023-05-09T23:11:14.002Z,12.26
2023-05-09T23:13:40.599Z,12.15
2023-05-09T23:16:07.374Z,12.08
2023-05-09T23:18:34.045Z,12.20
2023-05-09T23:21:00.731Z,11.94
2023-05-09T23:23:27.456Z,11.73
2023-05-09T23:25:54.090Z,12.14
2023-05-09T23:28:20.698Z,11.79
2023-05-09T23:30:47.353Z,11.78
2023-05-09T23:33:13.984Z,11.85
2023-05-09T23:35:40.578Z,11.88
2023-05-09T23:38:07.302Z,11.81
2023-05-09T23:40:33.920Z,11.47
2023-05-09T23:43:00.556Z,11.64
2023-05-09T23:45:27.335Z,11.58
2023-05-09T23:47:54.121Z,11.29
2023-05-09T23:50:20.820Z,11.16
2023-05-09T23:52:47.461Z,11.45
2023-05-09T23:55:14.157Z,11.13
2023-05-09T23:57:40.934Z,11.39
